createdAt,value
2022-10-28T00:01:18.747Z,9.50
2022-10-28T00:03:49.449Z,9.60
2022-10-28T00:06:21.447Z,9.50
2022-10-28T00:08:50.466Z,9.60
2022-10-28T00:11:22.056Z,9.60
2022-10-28T00:13:52.405Z,9.60
2022-10-28T00:16:22.463Z,9.60
2022-10-28T00:18:53.803Z,9.60
2022-10-28T00:21:29.636Z,9.60
2022-10-28T00:23:58.008Z,9.60
2022-10-28T00:26:30.187Z,9.60
2022-10-28T00:29:00.410Z,9.60
2022-10-28T00:31:31.380Z,9.60
2022-10-28T00:34:00.773Z,9.50
2022-10-28T00:36:31.807Z,9.50
2022-10-28T00:39:01.130Z,9.50
2022-10-28T00:41:38.353Z,9.60
2022-10-28T00:44:37.063Z,9.60
2022-10-28T00:47:12.886Z,9.60
2022-10-28T00:49:41.096Z,9.50
2022-10-28T00:52:13.159Z,9.50
2022-10-28T00:54:42.693Z,9.50
2022-10-28T00:57:15.675Z,9.50
2022-10-28T00:59:50.894Z,9.50
2022-10-28T01:02:19.673Z,9.60
2022-10-28T01:04:47.763Z,9.60
2022-10-28T01:07:16.791Z,9.60
2022-10-28T01:09:44.552Z,9.70
2022-10-28T01:12:49.041Z,9.70
2022-10-28T01:15:22.156Z,9.70
2022-10-28T01:18:10.006Z,9.70
2022-10-28T01:20:41.725Z,9.70
2022-10-28T01:23:35.388Z,9.70
2022-10-28T01:26:30.919Z,9.70
2022-10-28T01:29:24.853Z,9.80
2022-10-28T01:32:29.458Z,9.70
2022-10-28T01:34:56.941Z,9.70
2022-10-28T01:37:43.228Z,9.70
2022-10-28T01:40:29.385Z,9.70
2022-10-28T01:43:12.160Z,9.70
2022-10-28T01:45:57.532Z,9.70
2022-10-28T01:48:39.505Z,9.70
2022-10-28T01:51:35.059Z,9.70
2022-10-28T01:54:06.354Z,9.70
2022-10-28T01:56:37.832Z,9.70
2022-10-28T01:59:09.859Z,9.70
2022-10-28T02:01:38.326Z,9.70
2022-10-28T02:04:07.002Z,9.70
2022-10-28T02:06:36.955Z,9.70
2022-10-28T02:09:18.230Z,9.60
2022-10-28T02:11:59.626Z,9.60
2022-10-28T02:18:06.163Z,9.60
2022-10-28T02:20:55.189Z,9.60
2022-10-28T02:23:41.730Z,9.50
2022-10-28T02:26:23.490Z,9.60
2022-10-28T02:29:08.001Z,9.60
2022-10-28T02:31:44.230Z,9.60
2022-10-28T02:34:17.215Z,9.60
2022-10-28T02:36:49.362Z,9.60
2022-10-28T02:39:24.500Z,9.60
2022-10-28T02:41:54.728Z,9.50
2022-10-28T02:44:27.921Z,9.50
2022-10-28T02:47:02.274Z,9.50
2022-10-28T02:49:33.683Z,9.40
2022-10-28T02:52:04.878Z,9.40
2022-10-28T02:54:56.331Z,9.40
2022-10-28T02:57:27.577Z,9.40
2022-10-28T03:00:00.748Z,9.40
2022-10-28T03:02:29.441Z,9.30
2022-10-28T03:04:57.233Z,9.30
2022-10-28T03:07:25.015Z,9.30
2022-10-28T03:09:52.911Z,9.20
2022-10-28T03:12:20.032Z,9.20
2022-10-28T03:14:48.140Z,9.10
2022-10-28T03:17:15.906Z,9.10
2022-10-28T03:19:43.039Z,9.20
2022-10-28T03:22:12.819Z,9.20
2022-10-28T03:24:40.023Z,9.10
2022-10-28T03:27:08.114Z,9.10
2022-10-28T03:29:35.032Z,9.10
2022-10-28T03:32:03.007Z,9.00
2022-10-28T03:34:30.069Z,9.10
2022-10-28T03:36:58.206Z,9.00
2022-10-28T03:39:26.029Z,9.00
2022-10-28T03:41:53.069Z,9.00
2022-10-28T03:44:21.298Z,9.00
2022-10-28T03:46:49.048Z,9.00
2022-10-28T03:49:17.020Z,8.90
2022-10-28T03:51:47.052Z,8.90
2022-10-28T03:54:15.007Z,8.90
2022-10-28T03:56:43.075Z,8.90
2022-10-28T03:59:10.308Z,8.90
2022-10-28T04:01:38.189Z,8.90
2022-10-28T04:04:05.441Z,8.80
2022-10-28T04:06:33.068Z,8.80
2022-10-28T04:09:01.050Z,8.80
2022-10-28T04:11:29.134Z,8.80
2022-10-28T04:13:57.469Z,8.80
2022-10-28T04:16:25.079Z,8.80
2022-10-28T04:18:52.982Z,8.80
2022-10-28T04:21:21.216Z,8.80
2022-10-28T04:23:49.338Z,8.80
2022-10-28T04:26:16.221Z,8.80
2022-10-28T04:28:44.224Z,8.80
2022-10-28T04:31:12.167Z,8.70
2022-10-28T04:33:40.257Z,8.70
2022-10-28T04:36:11.762Z,8.70
2022-10-28T04:38:40.072Z,8.70
2022-10-28T04:41:12.459Z,8.70
2022-10-28T04:43:40.305Z,8.80
2022-10-28T04:46:07.136Z,8.70
2022-10-28T04:48:35.652Z,8.70
2022-10-28T04:51:03.517Z,8.70
2022-10-28T04:53:31.416Z,8.70
2022-10-28T04:55:59.853Z,8.70
2022-10-28T04:58:27.829Z,8.60
2022-10-28T05:00:57.717Z,8.70
2022-10-28T05:03:25.112Z,8.60
2022-10-28T05:05:53.147Z,8.60
2022-10-28T05:08:21.193Z,8.60
2022-10-28T05:10:50.972Z,8.70
2022-10-28T05:13:19.604Z,8.60
2022-10-28T05:15:49.992Z,8.60
2022-10-28T05:18:18.169Z,8.60
2022-10-28T05:20:46.166Z,8.60
2022-10-28T05:23:14.318Z,8.60
2022-10-28T05:25:42.821Z,8.60
2022-10-28T05:28:10.825Z,8.60
2022-10-28T05:30:38.103Z,8.50
2022-10-28T05:33:05.504Z,8.50
2022-10-28T05:35:33.735Z,8.60
2022-10-28T05:38:01.837Z,8.60
2022-10-28T05:40:30.624Z,8.60
2022-10-28T05:42:58.718Z,8.50
2022-10-28T05:45:27.120Z,8.60
2022-10-28T05:47:55.450Z,8.60
2022-10-28T05:50:23.491Z,8.60
2022-10-28T05:52:53.673Z,8.50
2022-10-28T05:55:23.014Z,8.50
2022-10-28T05:57:57.240Z,8.50
2022-10-28T06:00:27.056Z,8.60
2022-10-28T06:03:12.501Z,8.60
2022-10-28T06:05:43.995Z,8.70
2022-10-28T06:08:13.036Z,8.70
2022-10-28T06:10:41.758Z,8.70
2022-10-28T06:13:13.688Z,8.80
2022-10-28T06:15:42.115Z,8.90
2022-10-28T06:18:10.089Z,8.90
2022-10-28T06:20:38.571Z,9.00
2022-10-28T06:23:08.220Z,9.10
2022-10-28T06:25:36.718Z,9.10
2022-10-28T06:28:09.583Z,9.30
2022-10-28T06:30:40.805Z,9.40
2022-10-28T06:33:09.081Z,9.60
2022-10-28T06:35:43.715Z,9.80
2022-10-28T06:38:12.094Z,9.90
2022-10-28T06:40:40.110Z,10.20
2022-10-28T06:43:14.050Z,10.50
2022-10-28T06:45:42.149Z,10.80
2022-10-28T06:48:11.944Z,11.00
2022-10-28T06:50:40.173Z,11.20
2022-10-28T06:53:09.293Z,11.40
2022-10-28T06:55:39.301Z,11.60
2022-10-28T06:58:12.128Z,11.80
2022-10-28T07:00:40.373Z,12.00
2022-10-28T07:03:09.809Z,12.30
2022-10-28T07:05:39.637Z,12.50
2022-10-28T07:08:07.599Z,12.80
2022-10-28T07:10:35.918Z,13.00
2022-10-28T07:13:05.843Z,13.20
2022-10-28T07:15:34.312Z,13.30
2022-10-28T07:18:02.880Z,13.40
2022-10-28T07:20:32.957Z,13.50
2022-10-28T07:23:02.975Z,13.70
2022-10-28T07:25:31.726Z,13.80
2022-10-28T07:28:05.189Z,13.90
2022-10-28T07:30:41.173Z,14.00
2022-10-28T07:33:09.503Z,14.10
2022-10-28T07:35:37.306Z,14.20
2022-10-28T07:38:05.238Z,14.30
2022-10-28T07:40:37.517Z,14.40
2022-10-28T07:43:09.785Z,14.60
2022-10-28T07:45:39.650Z,14.80
2022-10-28T07:48:09.701Z,15.10
2022-10-28T07:50:39.553Z,15.50
2022-10-28T07:53:07.612Z,15.90
2022-10-28T07:55:35.544Z,16.30
2022-10-28T07:58:04.749Z,16.50
2022-10-28T08:00:34.817Z,16.90
2022-10-28T08:03:03.535Z,17.10
2022-10-28T08:05:31.740Z,17.40
2022-10-28T08:08:01.919Z,17.80
2022-10-28T08:10:30.725Z,18.40
2022-10-28T08:13:00.777Z,18.80
2022-10-28T08:15:29.811Z,19.00
2022-10-28T08:17:59.681Z,19.10
2022-10-28T08:20:27.781Z,19.20
2022-10-28T08:22:58.411Z,19.30
2022-10-28T08:25:26.630Z,19.00
2022-10-28T08:27:54.373Z,19.00
2022-10-28T08:30:22.651Z,19.00
2022-10-28T08:32:50.627Z,19.00
2022-10-28T08:35:18.533Z,19.20
2022-10-28T08:37:51.767Z,19.60
2022-10-28T08:40:49.995Z,19.90
2022-10-28T08:43:57.576Z,20.20
2022-10-28T08:46:49.760Z,20.10
2022-10-28T08:49:22.104Z,20.10
2022-10-28T08:52:02.220Z,20.10
2022-10-28T08:54:43.344Z,20.00
2022-10-28T08:57:18.107Z,20.20
2022-10-28T08:59:48.636Z,20.30
2022-10-28T09:02:24.209Z,20.40
2022-10-28T09:05:06.563Z,20.10
2022-10-28T09:07:37.790Z,20.30
2022-10-28T09:10:06.789Z,20.50
2022-10-28T09:13:02.611Z,20.60
2022-10-28T09:15:46.174Z,20.70
2022-10-28T09:18:26.789Z,20.80
2022-10-28T09:21:06.068Z,21.10
2022-10-28T09:23:42.614Z,21.40
2022-10-28T09:26:24.486Z,21.60
2022-10-28T09:29:04.820Z,21.70
2022-10-28T09:31:53.150Z,22.00
2022-10-28T09:35:01.936Z,22.30
2022-10-28T09:37:36.502Z,22.30
2022-10-28T09:40:29.689Z,22.00
2022-10-28T09:43:17.256Z,22.30
2022-10-28T09:45:49.476Z,22.40
2022-10-28T09:48:49.414Z,22.30
2022-10-28T09:51:38.793Z,22.60
2022-10-28T09:54:08.152Z,22.70
2022-10-28T09:56:36.411Z,22.50
2022-10-28T09:59:05.284Z,22.00
2022-10-28T10:01:39.812Z,21.70
2022-10-28T10:04:35.802Z,21.80
2022-10-28T10:07:12.752Z,22.30
2022-10-28T10:09:43.306Z,22.50
2022-10-28T10:12:13.280Z,22.90
2022-10-28T10:14:50.097Z,23.20
2022-10-28T10:17:46.013Z,23.30
2022-10-28T10:20:18.086Z,23.30
2022-10-28T10:22:49.666Z,23.30
2022-10-28T10:25:25.855Z,23.50
2022-10-28T10:28:14.640Z,23.50
2022-10-28T10:30:58.823Z,23.70
2022-10-28T10:33:34.086Z,23.70
2022-10-28T10:36:14.540Z,23.60
2022-10-28T10:38:52.273Z,23.90
2022-10-28T10:41:42.939Z,23.90
2022-10-28T10:44:59.328Z,24.20
2022-10-28T10:47:30.997Z,24.10
2022-10-28T10:50:22.518Z,24.10
2022-10-28T10:52:57.429Z,24.50
2022-10-28T10:55:40.370Z,24.90
2022-10-28T10:58:19.002Z,25.10
2022-10-28T11:00:53.643Z,25.60
2022-10-28T11:03:34.943Z,26.10
2022-10-28T11:06:22.491Z,26.40
2022-10-28T11:08:59.892Z,26.50
2022-10-28T11:11:40.778Z,26.60
2022-10-28T11:14:14.323Z,26.60
2022-10-28T11:16:53.709Z,26.80
2022-10-28T11:19:32.407Z,27.30
2022-10-28T11:22:18.921Z,27.50
2022-10-28T11:25:20.955Z,28.30
2022-10-28T11:27:58.814Z,28.90
2022-10-28T11:31:10.297Z,29.90
2022-10-28T11:33:52.337Z,30.00
2022-10-28T11:36:39.135Z,30.00
2022-10-28T11:39:28.306Z,29.40
2022-10-28T11:42:12.320Z,29.40
2022-10-28T11:44:54.404Z,29.30
2022-10-28T11:47:50.916Z,29.10
2022-10-28T11:50:39.880Z,28.90
2022-10-28T11:53:33.550Z,28.70
2022-10-28T11:56:33.894Z,29.00
2022-10-28T11:59:29.347Z,29.60
2022-10-28T12:02:35.007Z,30.20
2022-10-28T12:05:24.274Z,30.20
2022-10-28T12:08:15.676Z,29.60
2022-10-28T12:11:10.204Z,29.50
2022-10-28T12:14:13.647Z,30.00
2022-10-28T12:17:04.408Z,31.00
2022-10-28T12:19:45.893Z,31.70
2022-10-28T12:22:36.971Z,32.40
2022-10-28T12:25:15.197Z,32.20
2022-10-28T12:27:46.768Z,32.80
2022-10-28T12:30:24.002Z,32.70
2022-10-28T12:32:58.910Z,33.20
2022-10-28T12:35:40.343Z,33.50
2022-10-28T12:38:35.174Z,33.90
2022-10-28T12:41:13.967Z,33.10
2022-10-28T12:43:48.851Z,31.70
2022-10-28T12:49:51.069Z,32.70
2022-10-28T12:52:45.992Z,32.90
2022-10-28T12:55:39.820Z,33.50
2022-10-28T12:58:16.193Z,32.20
2022-10-28T13:00:51.275Z,31.70
2022-10-28T13:03:19.298Z,31.80
2022-10-28T13:06:23.954Z,32.10
2022-10-28T13:09:15.072Z,32.10
2022-10-28T13:12:26.000Z,31.60
2022-10-28T13:14:52.777Z,29.90
2022-10-28T13:17:40.828Z,28.30
2022-10-28T13:20:26.236Z,27.90
2022-10-28T13:23:22.700Z,27.40
2022-10-28T13:26:16.586Z,27.30
2022-10-28T13:28:54.027Z,26.90
2022-10-28T13:31:23.458Z,26.50
2022-10-28T13:34:00.003Z,26.20
2022-10-28T13:36:38.718Z,26.40
2022-10-28T13:39:21.994Z,27.20
2022-10-28T13:42:10.066Z,28.30
2022-10-28T13:44:57.011Z,29.80
2022-10-28T13:47:29.075Z,30.70
2022-10-28T13:50:21.969Z,30.70
2022-10-28T13:53:23.901Z,30.00
2022-10-28T13:55:57.683Z,28.90
2022-10-28T13:58:26.786Z,28.60
2022-10-28T14:00:55.161Z,28.50
2022-10-28T14:03:25.790Z,29.10
2022-10-28T14:06:02.075Z,29.80
2022-10-28T14:08:41.457Z,29.80
2022-10-28T14:11:38.320Z,29.70
2022-10-28T14:14:06.594Z,29.40
2022-10-28T14:16:44.232Z,28.40
2022-10-28T14:19:23.967Z,27.50
2022-10-28T14:22:07.551Z,26.50
2022-10-28T14:24:43.432Z,26.00
2022-10-28T14:27:15.352Z,25.70
2022-10-28T14:29:46.763Z,25.40
2022-10-28T14:32:32.286Z,25.10
2022-10-28T14:35:14.515Z,24.80
2022-10-28T14:38:12.051Z,24.30
2022-10-28T14:40:54.284Z,24.00
2022-10-28T14:43:35.984Z,23.60
2022-10-28T14:46:29.994Z,23.30
2022-10-28T14:48:59.738Z,22.90
2022-10-28T14:51:42.361Z,22.70
2022-10-28T14:54:40.899Z,22.50
2022-10-28T14:57:09.185Z,22.20
2022-10-28T14:59:44.152Z,21.90
2022-10-28T15:02:32.057Z,21.70
2022-10-28T15:05:20.292Z,21.40
2022-10-28T15:07:49.076Z,21.20
2022-10-28T15:10:34.000Z,21.00
2022-10-28T15:13:02.234Z,20.80
2022-10-28T15:15:35.340Z,20.60
2022-10-28T15:18:20.888Z,20.40
2022-10-28T15:21:06.480Z,20.30
2022-10-28T15:23:35.372Z,20.10
2022-10-28T15:26:14.285Z,20.10
2022-10-28T15:28:43.172Z,20.00
2022-10-28T15:31:11.220Z,20.00
2022-10-28T15:33:42.432Z,19.90
2022-10-28T15:36:24.761Z,19.80
2022-10-28T15:39:16.034Z,19.70
2022-10-28T15:41:56.339Z,19.60
2022-10-28T15:44:39.522Z,19.40
2022-10-28T15:47:33.011Z,19.30
2022-10-28T15:50:26.328Z,19.10
2022-10-28T15:53:33.069Z,18.90
2022-10-28T15:56:14.831Z,18.70
2022-10-28T15:59:00.972Z,18.40
2022-10-28T16:01:40.960Z,18.10
2022-10-28T16:04:26.174Z,17.90
2022-10-28T16:06:58.139Z,17.70
2022-10-28T16:09:42.169Z,17.60
2022-10-28T16:12:26.628Z,17.50
2022-10-28T16:15:01.878Z,17.20
2022-10-28T16:17:33.471Z,17.00
2022-10-28T16:20:17.049Z,16.90
2022-10-28T16:22:47.167Z,16.80
2022-10-28T16:25:22.235Z,16.60
2022-10-28T16:27:51.492Z,16.50
2022-10-28T16:30:19.659Z,16.40
2022-10-28T16:32:49.401Z,16.30
2022-10-28T16:35:24.395Z,16.20
2022-10-28T16:38:00.514Z,16.10
2022-10-28T16:40:50.500Z,16.00
2022-10-28T16:43:22.759Z,15.90
2022-10-28T16:45:52.646Z,15.80
2022-10-28T16:48:23.577Z,15.80
2022-10-28T16:51:17.506Z,15.70
2022-10-28T16:53:50.857Z,15.70
2022-10-28T16:56:19.007Z,15.70
2022-10-28T16:58:47.243Z,15.70
2022-10-28T17:01:20.522Z,15.60
2022-10-28T17:03:50.522Z,15.60
2022-10-28T17:06:22.883Z,15.60
2022-10-28T17:09:02.882Z,15.70
2022-10-28T17:14:04.713Z,15.50
2022-10-28T17:16:36.925Z,15.50
2022-10-28T17:19:07.411Z,15.50
2022-10-28T17:21:35.605Z,15.60
2022-10-28T17:24:04.866Z,15.60
2022-10-28T17:26:31.771Z,15.50
2022-10-28T17:28:59.640Z,15.60
2022-10-28T17:31:28.115Z,15.50
2022-10-28T17:33:56.160Z,15.40
2022-10-28T17:36:24.157Z,15.40
2022-10-28T17:38:52.978Z,15.40
2022-10-28T17:41:20.896Z,15.40
2022-10-28T17:43:53.246Z,15.40
2022-10-28T17:46:26.012Z,15.40
2022-10-28T17:48:54.367Z,15.30
2022-10-28T17:51:25.023Z,15.20
2022-10-28T17:53:56.501Z,15.10
2022-10-28T17:56:24.467Z,14.90
2022-10-28T17:58:55.489Z,14.90
2022-10-28T18:01:23.998Z,15.00
2022-10-28T18:03:53.853Z,14.90
2022-10-28T18:06:27.041Z,14.90
2022-10-28T18:08:55.246Z,14.90
2022-10-28T18:11:26.504Z,14.90
2022-10-28T18:13:56.266Z,14.90
2022-10-28T18:16:28.121Z,14.90
2022-10-28T18:18:56.519Z,14.90
2022-10-28T18:21:25.303Z,14.90
2022-10-28T18:23:54.524Z,14.90
2022-10-28T18:26:21.664Z,14.90
2022-10-28T18:28:50.101Z,14.80
2022-10-28T18:31:20.054Z,14.90
2022-10-28T18:33:49.129Z,14.80
2022-10-28T18:36:23.013Z,14.80
2022-10-28T18:38:53.212Z,14.70
2022-10-28T18:41:25.424Z,14.70
2022-10-28T18:43:55.739Z,14.70
2022-10-28T18:46:25.427Z,14.70
2022-10-28T18:48:55.664Z,14.70
2022-10-28T18:51:25.603Z,14.70
2022-10-28T18:53:55.520Z,14.70
2022-10-28T18:56:26.157Z,14.60
2022-10-28T18:58:57.387Z,14.60
2022-10-28T19:01:29.066Z,14.60
2022-10-28T19:04:00.029Z,14.50
2022-10-28T19:06:32.343Z,14.40
2022-10-28T19:09:04.477Z,14.40
2022-10-28T19:11:34.260Z,14.40
2022-10-28T19:14:05.060Z,14.50
2022-10-28T19:16:34.197Z,14.40
2022-10-28T19:19:05.001Z,14.30
2022-10-28T19:21:33.769Z,14.30
2022-10-28T19:24:02.369Z,14.30
2022-10-28T19:26:31.987Z,14.30
2022-10-28T19:29:00.548Z,14.40
2022-10-28T19:31:30.048Z,14.40
2022-10-28T19:33:57.942Z,14.40
2022-10-28T19:36:28.624Z,14.30
2022-10-28T19:38:57.807Z,14.30
2022-10-28T19:41:28.045Z,14.20
2022-10-28T19:43:58.714Z,14.30
2022-10-28T19:46:29.223Z,14.30
2022-10-28T19:49:00.369Z,14.30
2022-10-28T19:51:33.638Z,14.30
2022-10-28T19:54:04.809Z,14.20
2022-10-28T19:56:35.013Z,14.20
2022-10-28T19:59:05.004Z,14.20
2022-10-28T20:01:35.931Z,14.10
2022-10-28T20:04:06.681Z,14.00
2022-10-28T20:06:39.296Z,14.00
2022-10-28T20:09:07.417Z,14.00
2022-10-28T20:11:38.105Z,14.00
2022-10-28T20:14:10.195Z,13.90
2022-10-28T20:16:45.993Z,13.90
2022-10-28T20:19:15.967Z,13.80
2022-10-28T20:21:48.543Z,13.70
2022-10-28T20:24:17.257Z,13.70
2022-10-28T20:26:44.200Z,13.80
2022-10-28T20:29:13.194Z,13.70
2022-10-28T20:31:41.160Z,13.60
2022-10-28T20:34:09.508Z,13.50
2022-10-28T20:36:41.728Z,13.40
2022-10-28T20:39:20.851Z,13.30
2022-10-28T20:41:51.058Z,13.20
2022-10-28T20:44:19.326Z,13.30
2022-10-28T20:46:48.047Z,13.30
2022-10-28T20:49:16.485Z,13.30
2022-10-28T20:51:44.308Z,13.30
2022-10-28T20:54:14.111Z,13.20
2022-10-28T20:56:43.004Z,13.10
2022-10-28T20:59:11.178Z,13.00
2022-10-28T21:01:41.157Z,12.90
2022-10-28T21:04:11.075Z,12.90
2022-10-28T21:06:39.722Z,12.80
2022-10-28T21:09:08.840Z,12.70
2022-10-28T21:11:38.950Z,12.70
2022-10-28T21:14:07.214Z,12.60
2022-10-28T21:16:37.327Z,12.60
2022-10-28T21:19:13.236Z,12.50
2022-10-28T21:21:41.241Z,12.50
2022-10-28T21:24:13.065Z,12.50
2022-10-28T21:26:39.849Z,12.40
2022-10-28T21:29:08.260Z,12.40
2022-10-28T21:31:36.136Z,12.40
2022-10-28T21:34:07.395Z,12.40
2022-10-28T21:36:41.319Z,12.40
2022-10-28T21:39:09.287Z,12.40
2022-10-28T21:41:39.264Z,12.50
2022-10-28T21:44:07.252Z,12.60
2022-10-28T21:46:35.222Z,12.80
2022-10-28T21:49:03.357Z,12.80
2022-10-28T21:51:36.258Z,12.90
2022-10-28T21:54:04.495Z,12.90
2022-10-28T21:56:32.464Z,13.00
2022-10-28T21:59:02.363Z,13.00
2022-10-28T22:01:32.375Z,13.00
2022-10-28T22:04:00.703Z,12.90
2022-10-28T22:06:29.066Z,12.70
2022-10-28T22:08:59.275Z,12.70
2022-10-28T22:11:27.563Z,12.60
2022-10-28T22:14:01.063Z,12.60
2022-10-28T22:16:33.059Z,12.60
2022-10-28T22:19:04.203Z,12.50
2022-10-28T22:21:35.158Z,12.40
2022-10-28T22:24:03.031Z,12.30
2022-10-28T22:26:31.016Z,12.20
2022-10-28T22:28:59.354Z,12.20
2022-10-28T22:31:33.866Z,12.10
2022-10-28T22:34:02.302Z,12.10
2022-10-28T22:36:31.294Z,12.00
2022-10-28T22:38:59.155Z,12.00
2022-10-28T22:41:29.656Z,11.90
2022-10-28T22:44:00.007Z,11.90
2022-10-28T22:46:30.338Z,11.80
2022-10-28T22:48:58.514Z,11.80
2022-10-28T22:51:25.878Z,11.70
2022-10-28T22:53:55.582Z,11.60
2022-10-28T22:56:25.895Z,11.60
2022-10-28T22:58:56.397Z,11.50
2022-10-28T23:01:25.317Z,11.50
2022-10-28T23:03:53.878Z,11.40
2022-10-28T23:06:24.348Z,11.50
2022-10-28T23:08:53.184Z,11.60
2022-10-28T23:11:21.859Z,11.60
2022-10-28T23:13:54.624Z,11.70
2022-10-28T23:16:23.637Z,11.80
2022-10-28T23:18:53.960Z,11.80
2022-10-28T23:21:25.414Z,11.70
2022-10-28T23:23:58.134Z,11.60
2022-10-28T23:26:26.521Z,11.50
2022-10-28T23:28:57.558Z,11.40
2022-10-28T23:31:26.182Z,11.40
2022-10-28T23:33:54.947Z,11.20
2022-10-28T23:36:23.146Z,11.20
2022-10-28T23:38:50.874Z,11.40
2022-10-28T23:41:21.436Z,11.50
2022-10-28T23:43:50.556Z,11.60
2022-10-28T23:46:18.724Z,11.60
2022-10-28T23:48:45.834Z,11.70
2022-10-28T23:51:14.176Z,11.70
2022-10-28T23:53:42.388Z,11.70
2022-10-28T23:56:10.863Z,11.60
2022-10-28T23:58:39.193Z,11.50
